sensor_id;sensor_type;location;lat;lon;timestamp;P1;durP1;ratioP1;P2;durP2;ratioP2
25169;SDS011;13129;48.012;10.352;2023-03-11T04:31:09;2.85;;;1.90;;
25169;SDS011;13129;48.012;10.352;2023-03-11T04:33:36;2.08;;;1.98;;
25169;SDS011;13129;48.012;10.352;2023-03-11T04:36:06;1.70;;;1.60;;
25169;SDS011;13129;48.012;10.352;2023-03-11T04:38:33;2.88;;;1.90;;
25169;SDS011;13129;48.012;10.352;2023-03-11T04:40:59;2.05;;;1.55;;
25169;SDS011;13129;48.012;10.352;2023-03-11T04:43:25;2.13;;;1.88;;
25169;SDS011;13129;48.012;10.352;2023-03-11T04:45:51;2.85;;;1.83;;
25169;SDS011;13129;48.012;10.352;2023-03-11T04:48:17;1.92;;;1.80;;
25169;SDS011;13129;48.012;10.352;2023-03-11T04:50:43;1.80;;;1.45;;
25169;SDS011;13129;48.012;10.352;2023-03-11T04:53:08;1.90;;;1.80;;
25169;SDS011;13129;48.012;10.352;2023-03-11T04:55:34;1.48;;;1.30;;
25169;SDS011;13129;48.012;10.352;2023-03-11T04:58:00;1.92;;;1.75;;
25169;SDS011;13129;48.012;10.352;2023-03-11T05:00:25;4.00;;;2.00;;
25169;SDS011;13129;48.012;10.352;2023-03-11T05:02:51;2.50;;;1.98;;
25169;SDS011;13129;48.012;10.352;2023-03-11T05:05:17;1.70;;;1.58;;
25169;SDS011;13129;48.012;10.352;2023-03-11T05:07:46;2.13;;;1.70;;
25169;SDS011;13129;48.012;10.352;2023-03-11T05:10:13;1.73;;;1.63;;
25169;SDS011;13129;48.012;10.352;2023-03-11T05:12:39;2.70;;;1.90;;
25169;SDS011;13129;48.012;10.352;2023-03-11T05:15:04;2.90;;;1.90;;
25169;SDS011;13129;48.012;10.352;2023-03-11T05:17:31;2.17;;;1.90;;
25169;SDS011;13129;48.012;10.352;2023-03-11T05:19:56;2.63;;;1.90;;
25169;SDS011;13129;48.012;10.352;2023-03-11T05:22:22;1.90;;;1.58;;
25169;SDS011;13129;48.012;10.352;2023-03-11T05:24:48;1.88;;;1.77;;
25169;SDS011;13129;48.012;10.352;2023-03-11T05:27:14;2.35;;;2.15;;
25169;SDS011;13129;48.012;10.352;2023-03-11T05:29:43;2.00;;;1.90;;
25169;SDS011;13129;48.012;10.352;2023-03-11T05:32:10;3.13;;;1.98;;
25169;SDS011;13129;48.012;10.352;2023-03-11T05:34:36;2.30;;;2.13;;
25169;SDS011;13129;48.012;10.352;2023-03-11T05:37:02;2.53;;;1.98;;
25169;SDS011;13129;48.012;10.352;2023-03-11T05:39:28;2.65;;;1.92;;
25169;SDS011;13129;48.012;10.352;2023-03-11T05:41:54;1.90;;;1.77;;
25169;SDS011;13129;48.012;10.352;2023-03-11T05:44:20;2.00;;;1.80;;
25169;SDS011;13129;48.012;10.352;2023-03-11T05:46:46;3.03;;;2.17;;
25169;SDS011;13129;48.012;10.352;2023-03-11T05:49:12;2.10;;;1.90;;
25169;SDS011;13129;48.012;10.352;2023-03-11T05:51:38;2.25;;;1.80;;
25169;SDS011;13129;48.012;10.352;2023-03-11T05:54:04;1.83;;;1.73;;
25169;SDS011;13129;48.012;10.352;2023-03-11T05:56:38;2.92;;;1.95;;
25169;SDS011;13129;48.012;10.352;2023-03-11T05:59:12;1.88;;;1.77;;
25169;SDS011;13129;48.012;10.352;2023-03-11T06:01:38;2.17;;;1.98;;
25169;SDS011;13129;48.012;10.352;2023-03-11T06:04:04;4.22;;;2.30;;
25169;SDS011;13129;48.012;10.352;2023-03-11T06:06:30;2.42;;;2.22;;
25169;SDS011;13129;48.012;10.352;2023-03-11T06:08:56;3.17;;;2.90;;
25169;SDS011;13129;48.012;10.352;2023-03-11T06:11:22;2.25;;;1.80;;
25169;SDS011;13129;48.012;10.352;2023-03-11T06:13:51;2.83;;;2.47;;
25169;SDS011;13129;48.012;10.352;2023-03-11T06:16:21;2.10;;;1.90;;
25169;SDS011;13129;48.012;10.352;2023-03-11T06:18:48;7.72;;;2.13;;
25169;SDS011;13129;48.012;10.352;2023-03-11T06:21:14;1.70;;;1.60;;
25169;SDS011;13129;48.012;10.352;2023-03-11T06:23:42;1.92;;;1.67;;
25169;SDS011;13129;48.012;10.352;2023-03-11T06:26:09;1.98;;;1.65;;
25169;SDS011;13129;48.012;10.352;2023-03-11T06:28:37;3.22;;;2.17;;
25169;SDS011;13129;48.012;10.352;2023-03-11T06:31:10;2.00;;;1.70;;
25169;SDS011;13129;48.012;10.352;2023-03-11T06:33:41;2.63;;;1.92;;
25169;SDS011;13129;48.012;10.352;2023-03-11T06:36:09;1.98;;;1.88;;
25169;SDS011;13129;48.012;10.352;2023-03-11T06:38:36;2.58;;;2.33;;
25169;SDS011;13129;48.012;10.352;2023-03-11T06:41:02;2.67;;;2.08;;
25169;SDS011;13129;48.012;10.352;2023-03-11T06:43:29;2.28;;;2.08;;
25169;SDS011;13129;48.012;10.352;2023-03-11T06:45:55;4.20;;;2.00;;
25169;SDS011;13129;48.012;10.352;2023-03-11T06:48:21;2.45;;;2.05;;
25169;SDS011;13129;48.012;10.352;2023-03-11T06:50:54;1.90;;;1.80;;
25169;SDS011;13129;48.012;10.352;2023-03-11T06:53:21;3.03;;;2.38;;
25169;SDS011;13129;48.012;10.352;2023-03-11T06:55:56;1.88;;;1.75;;
25169;SDS011;13129;48.012;10.352;2023-03-11T06:58:23;2.42;;;1.80;;
25169;SDS011;13129;48.012;10.352;2023-03-11T07:00:49;2.40;;;2.20;;
25169;SDS011;13129;48.012;10.352;2023-03-11T07:03:14;2.85;;;1.95;;
25169;SDS011;13129;48.012;10.352;2023-03-11T07:05:40;1.92;;;1.83;;
25169;SDS011;13129;48.012;10.352;2023-03-11T07:08:06;3.08;;;2.10;;
25169;SDS011;13129;48.012;10.352;2023-03-11T07:10:31;2.42;;;2.22;;
25169;SDS011;13129;48.012;10.352;2023-03-11T07:12:59;4.13;;;3.13;;
25169;SDS011;13129;48.012;10.352;2023-03-11T07:15:25;1.70;;;1.60;;
25169;SDS011;13129;48.012;10.352;2023-03-11T07:17:51;2.25;;;2.05;;
25169;SDS011;13129;48.012;10.352;2023-03-11T07:20:17;3.08;;;1.60;;
25169;SDS011;13129;48.012;10.352;2023-03-11T07:22:43;1.88;;;1.70;;
25169;SDS011;13129;48.012;10.352;2023-03-11T07:25:08;1.88;;;1.77;;
25169;SDS011;13129;48.012;10.352;2023-03-11T07:27:34;1.88;;;1.73;;
25169;SDS011;13129;48.012;10.352;2023-03-11T07:30:00;1.90;;;1.80;;
25169;SDS011;13129;48.012;10.352;2023-03-11T07:32:27;1.80;;;1.70;;
25169;SDS011;13129;48.012;10.352;2023-03-11T07:34:52;4.40;;;2.90;;
25169;SDS011;13129;48.012;10.352;2023-03-11T07:37:18;2.17;;;1.80;;
25169;SDS011;13129;48.012;10.352;2023-03-11T07:39:44;3.50;;;3.10;;
25169;SDS011;13129;48.012;10.352;2023-03-11T07:42:10;2.85;;;1.88;;
25169;SDS011;13129;48.012;10.352;2023-03-11T07:44:35;2.90;;;1.80;;
25169;SDS011;13129;48.012;10.352;2023-03-11T07:47:04;1.70;;;1.60;;
25169;SDS011;13129;48.012;10.352;2023-03-11T07:49:30;1.60;;;1.50;;
25169;SDS011;13129;48.012;10.352;2023-03-11T07:51:56;1.52;;;1.38;;
25169;SDS011;13129;48.012;10.352;2023-03-11T07:54:22;2.92;;;1.60;;
25169;SDS011;13129;48.012;10.352;2023-03-11T07:56:47;2.63;;;1.30;;
25169;SDS011;13129;48.012;10.352;2023-03-11T07:59:13;2.75;;;1.90;;
25169;SDS011;13129;48.012;10.352;2023-03-11T08:01:39;1.77;;;1.67;;
25169;SDS011;13129;48.012;10.352;2023-03-11T08:04:08;1.33;;;1.30;;
25169;SDS011;13129;48.012;10.352;2023-03-11T08:06:36;1.65;;;1.55;;
25169;SDS011;13129;48.012;10.352;2023-03-11T08:09:03;1.27;;;1.15;;
25169;SDS011;13129;48.012;10.352;2023-03-11T08:11:31;1.25;;;1.13;;
25169;SDS011;13129;48.012;10.352;2023-03-11T08:13:57;1.58;;;1.17;;
25169;SDS011;13129;48.012;10.352;2023-03-11T08:16:23;1.35;;;1.25;;
25169;SDS011;13129;48.012;10.352;2023-03-11T08:18:49;1.63;;;1.40;;
25169;SDS011;13129;48.012;10.352;2023-03-11T08:21:17;1.40;;;1.30;;
25169;SDS011;13129;48.012;10.352;2023-03-11T08:23:44;1.30;;;1.20;;
25169;SDS011;13129;48.012;10.352;2023-03-11T08:26:11;1.98;;;1.50;;
25169;SDS011;13129;48.012;10.352;2023-03-11T08:28:38;2.97;;;1.90;;
25169;SDS011;13129;48.012;10.352;2023-03-11T08:31:14;1.60;;;1.27;;
25169;SDS011;13129;48.012;10.352;2023-03-11T08:33:42;2.15;;;1.25;;
25169;SDS011;13129;48.012;10.352;2023-03-11T08:36:09;1.27;;;0.90;;
25169;SDS011;13129;48.012;10.352;2023-03-11T08:38:34;2.55;;;1.00;;
25169;SDS011;13129;48.012;10.352;2023-03-11T08:41:00;1.00;;;1.00;;
25169;SDS011;13129;48.012;10.352;2023-03-11T08:43:26;1.60;;;1.20;;
25169;SDS011;13129;48.012;10.352;2023-03-11T08:45:52;1.25;;;0.85;;
25169;SDS011;13129;48.012;10.352;2023-03-11T08:48:17;3.72;;;1.70;;
25169;SDS011;13129;48.012;10.352;2023-03-11T08:50:43;3.00;;;1.65;;
25169;SDS011;13129;48.012;10.352;2023-03-11T08:53:09;3.42;;;1.42;;
25169;SDS011;13129;48.012;10.352;2023-03-11T08:55:34;1.40;;;1.27;;
25169;SDS011;13129;48.012;10.352;2023-03-11T08:58:00;1.92;;;1.83;;
25169;SDS011;13129;48.012;10.352;2023-03-11T09:00:26;3.00;;;2.80;;
25169;SDS011;13129;48.012;10.352;2023-03-11T09:02:52;7.25;;;6.45;;
25169;SDS011;13129;48.012;10.352;2023-03-11T09:05:18;6.47;;;4.30;;
25169;SDS011;13129;48.012;10.352;2023-03-11T09:07:43;6.05;;;5.50;;
25169;SDS011;13129;48.012;10.352;2023-03-11T09:10:13;2.90;;;1.70;;
25169;SDS011;13129;48.012;10.352;2023-03-11T09:12:40;2.08;;;1.60;;
25169;SDS011;13129;48.012;10.352;2023-03-11T09:15:06;2.10;;;1.63;;
25169;SDS011;13129;48.012;10.352;2023-03-11T09:17:33;1.35;;;1.25;;
25169;SDS011;13129;48.012;10.352;2023-03-11T09:19:58;1.40;;;1.30;;
25169;SDS011;13129;48.012;10.352;2023-03-11T09:22:24;1.33;;;1.00;;
25169;SDS011;13129;48.012;10.352;2023-03-11T09:24:49;1.60;;;1.35;;
25169;SDS011;13129;48.012;10.352;2023-03-11T09:27:15;2.22;;;1.92;;
25169;SDS011;13129;48.012;10.352;2023-03-11T09:29:41;1.05;;;1.02;;
25169;SDS011;13129;48.012;10.352;2023-03-11T09:32:08;1.33;;;1.23;;
25169;SDS011;13129;48.012;10.352;2023-03-11T09:34:36;1.58;;;1.27;;
25169;SDS011;13129;48.012;10.352;2023-03-11T09:37:02;1.15;;;1.10;;
25169;SDS011;13129;48.012;10.352;2023-03-11T09:39:28;2.28;;;1.33;;
25169;SDS011;13129;48.012;10.352;2023-03-11T09:41:54;2.75;;;1.33;;
25169;SDS011;13129;48.012;10.352;2023-03-11T09:47:14;2.05;;;1.65;;
25169;SDS011;13129;48.012;10.352;2023-03-11T09:50:12;1.60;;;1.20;;
25169;SDS011;13129;48.012;10.352;2023-03-11T10:00:45;1.30;;;1.20;;
25169;SDS011;13129;48.012;10.352;2023-03-11T10:03:13;1.45;;;1.10;;
25169;SDS011;13129;48.012;10.352;2023-03-11T10:05:56;1.65;;;1.20;;
25169;SDS011;13129;48.012;10.352;2023-03-11T10:08:28;1.88;;;1.30;;
25169;SDS011;13129;48.012;10.352;2023-03-11T10:14:30;3.17;;;1.35;;
25169;SDS011;13129;48.012;10.352;2023-03-11T10:22:36;2.13;;;1.40;;
25169;SDS011;13129;48.012;10.352;2023-03-11T10:25:13;2.63;;;1.38;;
25169;SDS011;13129;48.012;10.352;2023-03-11T10:27:46;2.95;;;1.63;;
25169;SDS011;13129;48.012;10.352;2023-03-11T10:32:55;1.50;;;1.27;;
25169;SDS011;13129;48.012;10.352;2023-03-11T10:35:28;2.55;;;1.35;;
25169;SDS011;13129;48.012;10.352;2023-03-11T10:38:17;1.80;;;1.70;;
25169;SDS011;13129;48.012;10.352;2023-03-11T10:40:46;1.83;;;1.17;;
25169;SDS011;13129;48.012;10.352;2023-03-11T10:43:26;1.60;;;1.50;;
25169;SDS011;13129;48.012;10.352;2023-03-11T10:45:55;1.73;;;1.33;;
25169;SDS011;13129;48.012;10.352;2023-03-11T10:48:23;2.55;;;2.30;;
25169;SDS011;13129;48.012;10.352;2023-03-11T10:51:00;2.30;;;1.05;;
25169;SDS011;13129;48.012;10.352;2023-03-11T10:53:27;3.10;;;2.55;;
25169;SDS011;13129;48.012;10.352;2023-03-11T10:55:55;3.90;;;2.95;;
25169;SDS011;13129;48.012;10.352;2023-03-11T10:58:27;10.18;;;9.10;;
25169;SDS011;13129;48.012;10.352;2023-03-11T11:03:37;3.25;;;3.05;;
25169;SDS011;13129;48.012;10.352;2023-03-11T11:06:09;4.45;;;3.38;;
25169;SDS011;13129;48.012;10.352;2023-03-11T11:14:46;2.50;;;2.25;;
25169;SDS011;13129;48.012;10.352;2023-03-11T11:17:27;1.90;;;1.70;;
25169;SDS011;13129;48.012;10.352;2023-03-11T11:19:57;20.38;;;11.25;;
25169;SDS011;13129;48.012;10.352;2023-03-11T11:22:36;3.15;;;2.95;;
25169;SDS011;13129;48.012;10.352;2023-03-11T11:25:22;2.53;;;1.60;;
25169;SDS011;13129;48.012;10.352;2023-03-11T11:27:53;2.42;;;1.92;;
25169;SDS011;13129;48.012;10.352;2023-03-11T11:30:23;2.00;;;1.90;;
25169;SDS011;13129;48.012;10.352;2023-03-11T11:32:50;3.63;;;2.92;;
25169;SDS011;13129;48.012;10.352;2023-03-11T11:35:18;1.80;;;1.70;;
25169;SDS011;13129;48.012;10.352;2023-03-11T11:37:46;2.60;;;2.08;;
25169;SDS011;13129;48.012;10.352;2023-03-11T11:43:26;1.63;;;1.52;;
25169;SDS011;13129;48.012;10.352;2023-03-11T11:45:36;3.33;;;2.65;;
25169;SDS011;13129;48.012;10.352;2023-03-11T11:50:57;3.58;;;3.08;;
25169;SDS011;13129;48.012;10.352;2023-03-11T11:53:27;4.95;;;3.75;;
25169;SDS011;13129;48.012;10.352;2023-03-11T11:55:59;7.65;;;7.05;;
25169;SDS011;13129;48.012;10.352;2023-03-11T11:58:25;3.95;;;3.58;;
25169;SDS011;13129;48.012;10.352;2023-03-11T12:03:54;3.17;;;1.63;;
25169;SDS011;13129;48.012;10.352;2023-03-11T12:17:25;2.45;;;1.80;;
25169;SDS011;13129;48.012;10.352;2023-03-11T12:19:54;2.13;;;1.80;;
25169;SDS011;13129;48.012;10.352;2023-03-11T12:25:26;1.65;;;1.50;;
25169;SDS011;13129;48.012;10.352;2023-03-11T12:30:47;1.92;;;1.83;;
25169;SDS011;13129;48.012;10.352;2023-03-11T12:33:39;1.83;;;1.73;;
25169;SDS011;13129;48.012;10.352;2023-03-11T12:36:20;1.95;;;1.63;;
25169;SDS011;13129;48.012;10.352;2023-03-11T12:38:58;1.80;;;1.70;;
25169;SDS011;13129;48.012;10.352;2023-03-11T12:49:31;2.20;;;1.60;;
25169;SDS011;13129;48.012;10.352;2023-03-11T13:08:49;2.10;;;1.70;;
25169;SDS011;13129;48.012;10.352;2023-03-11T13:16:55;2.38;;;2.17;;
25169;SDS011;13129;48.012;10.352;2023-03-11T13:21:51;3.03;;;2.10;;
25169;SDS011;13129;48.012;10.352;2023-03-11T13:32:20;2.00;;;1.90;;
25169;SDS011;13129;48.012;10.352;2023-03-11T13:35:15;2.47;;;1.85;;
25169;SDS011;13129;48.012;10.352;2023-03-11T13:40:31;1.70;;;1.60;;
25169;SDS011;13129;48.012;10.352;2023-03-11T13:43:24;2.88;;;1.98;;
25169;SDS011;13129;48.012;10.352;2023-03-11T13:50:59;1.90;;;1.70;;
25169;SDS011;13129;48.012;10.352;2023-03-11T13:53:41;2.97;;;1.70;;
25169;SDS011;13129;48.012;10.352;2023-03-11T13:56:22;2.28;;;1.80;;
25169;SDS011;13129;48.012;10.352;2023-03-11T13:58:54;2.10;;;1.90;;
25169;SDS011;13129;48.012;10.352;2023-03-11T14:01:49;1.80;;;1.70;;
25169;SDS011;13129;48.012;10.352;2023-03-11T14:04:21;2.35;;;1.83;;
25169;SDS011;13129;48.012;10.352;2023-03-11T14:06:50;1.92;;;1.73;;
25169;SDS011;13129;48.012;10.352;2023-03-11T14:09:20;1.80;;;1.70;;
25169;SDS011;13129;48.012;10.352;2023-03-11T14:11:47;2.58;;;2.00;;
25169;SDS011;13129;48.012;10.352;2023-03-11T14:14:57;2.08;;;1.90;;
25169;SDS011;13129;48.012;10.352;2023-03-11T14:17:24;1.90;;;1.80;;
25169;SDS011;13129;48.012;10.352;2023-03-11T14:22:48;2.35;;;1.42;;
25169;SDS011;13129;48.012;10.352;2023-03-11T14:25:23;1.70;;;1.60;;
25169;SDS011;13129;48.012;10.352;2023-03-11T14:27:55;1.77;;;1.67;;
25169;SDS011;13129;48.012;10.352;2023-03-11T14:30:31;2.10;;;2.00;;
25169;SDS011;13129;48.012;10.352;2023-03-11T14:32:59;1.63;;;1.52;;
25169;SDS011;13129;48.012;10.352;2023-03-11T14:35:27;1.90;;;1.80;;
25169;SDS011;13129;48.012;10.352;2023-03-11T14:37:54;1.77;;;1.60;;
25169;SDS011;13129;48.012;10.352;2023-03-11T14:40:28;1.60;;;1.50;;
25169;SDS011;13129;48.012;10.352;2023-03-11T14:43:05;2.88;;;2.00;;
25169;SDS011;13129;48.012;10.352;2023-03-11T14:45:32;2.05;;;1.58;;
25169;SDS011;13129;48.012;10.352;2023-03-11T14:48:02;1.50;;;1.40;;
25169;SDS011;13129;48.012;10.352;2023-03-11T14:50:34;2.17;;;1.60;;
25169;SDS011;13129;48.012;10.352;2023-03-11T14:55:49;1.63;;;1.52;;
25169;SDS011;13129;48.012;10.352;2023-03-11T15:01:01;1.70;;;1.60;;
25169;SDS011;13129;48.012;10.352;2023-03-11T15:03:35;1.60;;;1.50;;
25169;SDS011;13129;48.012;10.352;2023-03-11T15:08:34;2.50;;;1.60;;
25169;SDS011;13129;48.012;10.352;2023-03-11T15:11:12;1.65;;;1.55;;
25169;SDS011;13129;48.012;10.352;2023-03-11T15:13:44;2.35;;;1.85;;
25169;SDS011;13129;48.012;10.352;2023-03-11T15:18:48;2.22;;;1.60;;
25169;SDS011;13129;48.012;10.352;2023-03-11T15:21:14;2.95;;;2.08;;
25169;SDS011;13129;48.012;10.352;2023-03-11T15:23:45;2.00;;;1.88;;
25169;SDS011;13129;48.012;10.352;2023-03-11T15:26:29;2.85;;;2.10;;
25169;SDS011;13129;48.012;10.352;2023-03-11T15:29:13;1.85;;;1.75;;
25169;SDS011;13129;48.012;10.352;2023-03-11T15:31:41;1.98;;;1.63;;
25169;SDS011;13129;48.012;10.352;2023-03-11T15:41:46;3.28;;;2.08;;
25169;SDS011;13129;48.012;10.352;2023-03-11T15:47:16;5.45;;;4.25;;
25169;SDS011;13129;48.012;10.352;2023-03-11T15:49:44;8.93;;;7.05;;
25169;SDS011;13129;48.012;10.352;2023-03-11T15:52:10;4.28;;;3.28;;
25169;SDS011;13129;48.012;10.352;2023-03-11T15:54:36;6.20;;;5.47;;
25169;SDS011;13129;48.012;10.352;2023-03-11T15:57:03;9.60;;;8.80;;
25169;SDS011;13129;48.012;10.352;2023-03-11T15:59:32;2.33;;;2.17;;
25169;SDS011;13129;48.012;10.352;2023-03-11T16:01:58;3.75;;;3.45;;
25169;SDS011;13129;48.012;10.352;2023-03-11T16:04:24;2.42;;;2.22;;
25169;SDS011;13129;48.012;10.352;2023-03-11T16:06:50;3.10;;;2.38;;
25169;SDS011;13129;48.012;10.352;2023-03-11T16:09:17;5.97;;;4.13;;
25169;SDS011;13129;48.012;10.352;2023-03-11T16:11:43;2.80;;;2.60;;
25169;SDS011;13129;48.012;10.352;2023-03-11T16:14:16;2.63;;;2.20;;
25169;SDS011;13129;48.012;10.352;2023-03-11T16:16:43;3.53;;;2.50;;
25169;SDS011;13129;48.012;10.352;2023-03-11T16:19:09;2.83;;;2.63;;
25169;SDS011;13129;48.012;10.352;2023-03-11T16:21:36;2.85;;;2.60;;
25169;SDS011;13129;48.012;10.352;2023-03-11T16:24:19;3.53;;;3.22;;
25169;SDS011;13129;48.012;10.352;2023-03-11T16:26:48;3.50;;;2.72;;
25169;SDS011;13129;48.012;10.352;2023-03-11T16:29:16;2.65;;;2.33;;
25169;SDS011;13129;48.012;10.352;2023-03-11T16:31:42;3.17;;;2.40;;
25169;SDS011;13129;48.012;10.352;2023-03-11T16:34:07;4.05;;;2.22;;
25169;SDS011;13129;48.012;10.352;2023-03-11T16:36:33;1.98;;;1.88;;
25169;SDS011;13129;48.012;10.352;2023-03-11T16:38:59;3.33;;;2.15;;
25169;SDS011;13129;48.012;10.352;2023-03-11T16:41:24;2.72;;;2.50;;
25169;SDS011;13129;48.012;10.352;2023-03-11T16:43:50;4.75;;;3.63;;
25169;SDS011;13129;48.012;10.352;2023-03-11T16:46:16;3.55;;;3.25;;
25169;SDS011;13129;48.012;10.352;2023-03-11T16:48:42;4.93;;;4.22;;
25169;SDS011;13129;48.012;10.352;2023-03-11T16:51:08;3.65;;;3.28;;
25169;SDS011;13129;48.012;10.352;2023-03-11T16:53:34;3.30;;;3.00;;
25169;SDS011;13129;48.012;10.352;2023-03-11T16:55:59;2.50;;;2.33;;
25169;SDS011;13129;48.012;10.352;2023-03-11T16:58:25;7.00;;;5.57;;
25169;SDS011;13129;48.012;10.352;2023-03-11T17:00:51;5.53;;;4.88;;
25169;SDS011;13129;48.012;10.352;2023-03-11T17:03:17;3.97;;;3.60;;
25169;SDS011;13129;48.012;10.352;2023-03-11T17:05:43;4.55;;;4.15;;
25169;SDS011;13129;48.012;10.352;2023-03-11T17:08:09;5.00;;;4.35;;
25169;SDS011;13129;48.012;10.352;2023-03-11T17:10:39;7.13;;;3.75;;
25169;SDS011;13129;48.012;10.352;2023-03-11T17:13:09;3.55;;;2.85;;
25169;SDS011;13129;48.012;10.352;2023-03-11T17:15:36;3.30;;;2.53;;
25169;SDS011;13129;48.012;10.352;2023-03-11T17:18:03;6.32;;;4.13;;
25169;SDS011;13129;48.012;10.352;2023-03-11T17:20:29;10.98;;;8.48;;
25169;SDS011;13129;48.012;10.352;2023-03-11T17:22:55;3.92;;;3.38;;
25169;SDS011;13129;48.012;10.352;2023-03-11T17:25:21;2.42;;;2.10;;
25169;SDS011;13129;48.012;10.352;2023-03-11T17:27:47;2.38;;;2.15;;
25169;SDS011;13129;48.012;10.352;2023-03-11T17:30:13;2.58;;;1.92;;
25169;SDS011;13129;48.012;10.352;2023-03-11T17:32:39;2.85;;;2.10;;
25169;SDS011;13129;48.012;10.352;2023-03-11T17:35:05;5.53;;;3.03;;
25169;SDS011;13129;48.012;10.352;2023-03-11T17:37:31;16.15;;;9.80;;
25169;SDS011;13129;48.012;10.352;2023-03-11T17:39:56;23.95;;;14.27;;
25169;SDS011;13129;48.012;10.352;2023-03-11T17:42:22;9.18;;;6.80;;
25169;SDS011;13129;48.012;10.352;2023-03-11T17:44:48;8.20;;;5.03;;
25169;SDS011;13129;48.012;10.352;2023-03-11T17:47:14;5.93;;;3.80;;
25169;SDS011;13129;48.012;10.352;2023-03-11T17:49:41;4.10;;;3.63;;
25169;SDS011;13129;48.012;10.352;2023-03-11T17:52:06;5.78;;;4.32;;
25169;SDS011;13129;48.012;10.352;2023-03-11T17:54:32;4.90;;;3.83;;
25169;SDS011;13129;48.012;10.352;2023-03-11T17:56:58;5.85;;;4.25;;
25169;SDS011;13129;48.012;10.352;2023-03-11T17:59:24;5.80;;;4.93;;
25169;SDS011;13129;48.012;10.352;2023-03-11T18:01:50;4.25;;;3.95;;
25169;SDS011;13129;48.012;10.352;2023-03-11T18:04:16;3.20;;;3.00;;
25169;SDS011;13129;48.012;10.352;2023-03-11T18:06:42;5.05;;;2.90;;
25169;SDS011;13129;48.012;10.352;2023-03-11T18:09:08;3.20;;;2.45;;
25169;SDS011;13129;48.012;10.352;2023-03-11T18:11:34;3.67;;;3.15;;
25169;SDS011;13129;48.012;10.352;2023-03-11T18:14:00;3.08;;;2.83;;
25169;SDS011;13129;48.012;10.352;2023-03-11T18:16:27;4.13;;;3.78;;
25169;SDS011;13129;48.012;10.352;2023-03-11T18:18:56;4.17;;;3.83;;
25169;SDS011;13129;48.012;10.352;2023-03-11T18:21:22;3.40;;;3.10;;
25169;SDS011;13129;48.012;10.352;2023-03-11T18:23:53;4.38;;;3.50;;
25169;SDS011;13129;48.012;10.352;2023-03-11T18:28:46;6.30;;;3.20;;
25169;SDS011;13129;48.012;10.352;2023-03-11T18:31:16;4.40;;;3.22;;
25169;SDS011;13129;48.012;10.352;2023-03-11T18:33:51;3.22;;;2.83;;
25169;SDS011;13129;48.012;10.352;2023-03-11T18:36:22;3.00;;;2.80;;
25169;SDS011;13129;48.012;10.352;2023-03-11T18:38:51;3.30;;;3.00;;
25169;SDS011;13129;48.012;10.352;2023-03-11T18:41:17;9.32;;;8.50;;
25169;SDS011;13129;48.012;10.352;2023-03-11T18:43:43;3.72;;;3.13;;
25169;SDS011;13129;48.012;10.352;2023-03-11T18:46:10;3.42;;;3.00;;
25169;SDS011;13129;48.012;10.352;2023-03-11T18:48:38;2.95;;;2.35;;
25169;SDS011;13129;48.012;10.352;2023-03-11T18:51:04;3.92;;;2.33;;
25169;SDS011;13129;48.012;10.352;2023-03-11T18:53:31;3.15;;;2.85;;
25169;SDS011;13129;48.012;10.352;2023-03-11T18:55:57;3.20;;;2.78;;
25169;SDS011;13129;48.012;10.352;2023-03-11T18:58:24;3.22;;;2.80;;
25169;SDS011;13129;48.012;10.352;2023-03-11T19:00:50;6.60;;;2.88;;
25169;SDS011;13129;48.012;10.352;2023-03-11T19:03:16;3.33;;;3.03;;
25169;SDS011;13129;48.012;10.352;2023-03-11T19:05:45;5.65;;;3.25;;
25169;SDS011;13129;48.012;10.352;2023-03-11T19:08:12;3.97;;;3.20;;
25169;SDS011;13129;48.012;10.352;2023-03-11T19:10:39;2.97;;;2.78;;
25169;SDS011;13129;48.012;10.352;2023-03-11T19:13:05;4.82;;;3.03;;
25169;SDS011;13129;48.012;10.352;2023-03-11T19:15:30;3.13;;;2.83;;
25169;SDS011;13129;48.012;10.352;2023-03-11T19:17:56;2.90;;;2.70;;
25169;SDS011;13129;48.012;10.352;2023-03-11T19:20:22;3.47;;;3.13;;
25169;SDS011;13129;48.012;10.352;2023-03-11T19:22:52;6.53;;;3.20;;
25169;SDS011;13129;48.012;10.352;2023-03-11T19:25:18;5.20;;;3.15;;
25169;SDS011;13129;48.012;10.352;2023-03-11T19:27:49;3.15;;;2.92;;
25169;SDS011;13129;48.012;10.352;2023-03-11T19:30:16;4.07;;;3.10;;
25169;SDS011;13129;48.012;10.352;2023-03-11T19:32:42;3.55;;;3.20;;
25169;SDS011;13129;48.012;10.352;2023-03-11T19:35:08;4.25;;;3.85;;
25169;SDS011;13129;48.012;10.352;2023-03-11T19:37:37;5.38;;;3.45;;
25169;SDS011;13129;48.012;10.352;2023-03-11T19:40:03;3.65;;;3.35;;
25169;SDS011;13129;48.012;10.352;2023-03-11T19:42:34;4.20;;;3.83;;
25169;SDS011;13129;48.012;10.352;2023-03-11T19:45:00;3.90;;;3.60;;
25169;SDS011;13129;48.012;10.352;2023-03-11T19:47:26;3.95;;;3.60;;
25169;SDS011;13129;48.012;10.352;2023-03-11T19:49:53;3.38;;;3.05;;
25169;SDS011;13129;48.012;10.352;2023-03-11T19:52:19;3.97;;;3.40;;
25169;SDS011;13129;48.012;10.352;2023-03-11T19:54:46;4.93;;;3.40;;
25169;SDS011;13129;48.012;10.352;2023-03-11T19:57:12;4.10;;;3.20;;
25169;SDS011;13129;48.012;10.352;2023-03-11T19:59:38;4.10;;;3.30;;
25169;SDS011;13129;48.012;10.352;2023-03-11T20:02:10;3.78;;;3.35;;
25169;SDS011;13129;48.012;10.352;2023-03-11T20:04:37;3.78;;;3.47;;
25169;SDS011;13129;48.012;10.352;2023-03-11T20:07:02;3.80;;;3.38;;
25169;SDS011;13129;48.012;10.352;2023-03-11T20:09:32;4.32;;;4.03;;
25169;SDS011;13129;48.012;10.352;2023-03-11T20:11:58;4.80;;;3.55;;
25169;SDS011;13129;48.012;10.352;2023-03-11T20:14:24;3.38;;;3.17;;
25169;SDS011;13129;48.012;10.352;2023-03-11T20:16:50;4.45;;;3.42;;
25169;SDS011;13129;48.012;10.352;2023-03-11T20:19:16;5.70;;;3.75;;
25169;SDS011;13129;48.012;10.352;2023-03-11T20:21:42;4.65;;;3.40;;
25169;SDS011;13129;48.012;10.352;2023-03-11T20:24:08;3.95;;;3.65;;
25169;SDS011;13129;48.012;10.352;2023-03-11T20:26:34;5.57;;;3.80;;
25169;SDS011;13129;48.012;10.352;2023-03-11T20:29:01;4.20;;;3.90;;
25169;SDS011;13129;48.012;10.352;2023-03-11T20:31:27;4.97;;;4.45;;
25169;SDS011;13129;48.012;10.352;2023-03-11T20:33:54;4.10;;;3.65;;
25169;SDS011;13129;48.012;10.352;2023-03-11T20:36:21;4.43;;;3.35;;
25169;SDS011;13129;48.012;10.352;2023-03-11T20:38:49;4.25;;;3.30;;
25169;SDS011;13129;48.012;10.352;2023-03-11T20:41:16;3.80;;;3.20;;
25169;SDS011;13129;48.012;10.352;2023-03-11T20:43:43;5.93;;;3.38;;
25169;SDS011;13129;48.012;10.352;2023-03-11T20:46:09;5.80;;;3.92;;
25169;SDS011;13129;48.012;10.352;2023-03-11T20:48:36;4.50;;;3.80;;
25169;SDS011;13129;48.012;10.352;2023-03-11T20:51:05;4.07;;;3.67;;
25169;SDS011;13129;48.012;10.352;2023-03-11T20:55:59;4.05;;;3.75;;
25169;SDS011;13129;48.012;10.352;2023-03-11T20:58:33;5.57;;;4.43;;
25169;SDS011;13129;48.012;10.352;2023-03-11T21:01:00;5.30;;;4.80;;
25169;SDS011;13129;48.012;10.352;2023-03-11T21:03:26;5.35;;;4.85;;
25169;SDS011;13129;48.012;10.352;2023-03-11T21:05:51;8.02;;;5.25;;
25169;SDS011;13129;48.012;10.352;2023-03-11T21:08:17;5.65;;;5.07;;
25169;SDS011;13129;48.012;10.352;2023-03-11T21:10:43;5.45;;;5.03;;
25169;SDS011;13129;48.012;10.352;2023-03-11T21:13:08;5.53;;;5.03;;
25169;SDS011;13129;48.012;10.352;2023-03-11T21:15:34;5.68;;;4.82;;
25169;SDS011;13129;48.012;10.352;2023-03-11T21:18:00;5.53;;;5.03;;
25169;SDS011;13129;48.012;10.352;2023-03-11T21:20:26;6.40;;;5.28;;
25169;SDS011;13129;48.012;10.352;2023-03-11T21:22:51;6.70;;;6.10;;
25169;SDS011;13129;48.012;10.352;2023-03-11T21:25:17;6.05;;;5.25;;